sensor_id;sensor_type;location;lat;lon;timestamp;P1;durP1;ratioP1;P2;durP2;ratioP2
42192;SDS011;52467;40.114;18.306;2023-03-01T00:01:12;18.87;;;4.67;;
42192;SDS011;52467;40.114;18.306;2023-03-01T00:03:42;26.48;;;5.55;;
42192;SDS011;52467;40.114;18.306;2023-03-01T00:06:10;23.63;;;5.78;;
42192;SDS011;52467;40.114;18.306;2023-03-01T00:08:37;25.20;;;5.18;;
42192;SDS011;52467;40.114;18.306;2023-03-01T00:13:49;25.67;;;4.57;;
42192;SDS011;52467;40.114;18.306;2023-03-01T00:16:20;23.20;;;5.18;;
42192;SDS011;52467;40.114;18.306;2023-03-01T00:18:57;18.00;;;4.97;;
42192;SDS011;52467;40.114;18.306;2023-03-01T00:21:25;26.00;;;5.05;;
42192;SDS011;52467;40.114;18.306;2023-03-01T00:23:53;33.13;;;6.32;;
42192;SDS011;52467;40.114;18.306;2023-03-01T00:26:21;27.97;;;6.20;;
42192;SDS011;52467;40.114;18.306;2023-03-01T00:28:50;26.03;;;5.77;;
42192;SDS011;52467;40.114;18.306;2023-03-01T00:31:19;28.48;;;5.95;;
42192;SDS011;52467;40.114;18.306;2023-03-01T00:33:48;26.33;;;5.75;;
42192;SDS011;52467;40.114;18.306;2023-03-01T00:36:20;19.67;;;5.30;;
42192;SDS011;52467;40.114;18.306;2023-03-01T00:38:48;16.15;;;5.03;;
42192;SDS011;52467;40.114;18.306;2023-03-01T00:41:16;23.35;;;5.90;;
42192;SDS011;52467;40.114;18.306;2023-03-01T00:43:44;21.27;;;4.80;;
42192;SDS011;52467;40.114;18.306;2023-03-01T00:46:12;23.90;;;5.07;;
42192;SDS011;52467;40.114;18.306;2023-03-01T00:48:42;27.13;;;4.63;;
42192;SDS011;52467;40.114;18.306;2023-03-01T00:51:11;18.58;;;4.00;;
42192;SDS011;52467;40.114;18.306;2023-03-01T00:53:39;26.83;;;4.85;;
42192;SDS011;52467;40.114;18.306;2023-03-01T00:56:07;22.75;;;4.97;;
42192;SDS011;52467;40.114;18.306;2023-03-01T00:58:36;19.45;;;4.53;;
42192;SDS011;52467;40.114;18.306;2023-03-01T01:01:10;21.40;;;4.20;;
42192;SDS011;52467;40.114;18.306;2023-03-01T01:03:46;20.35;;;4.15;;
42192;SDS011;52467;40.114;18.306;2023-03-01T01:06:16;23.77;;;5.18;;
42192;SDS011;52467;40.114;18.306;2023-03-01T01:08:53;26.27;;;5.57;;
42192;SDS011;52467;40.114;18.306;2023-03-01T01:11:22;28.85;;;5.70;;
42192;SDS011;52467;40.114;18.306;2023-03-01T01:13:50;34.45;;;6.85;;
42192;SDS011;52467;40.114;18.306;2023-03-01T01:16:19;29.30;;;6.40;;
42192;SDS011;52467;40.114;18.306;2023-03-01T01:18:51;25.30;;;6.32;;
42192;SDS011;52467;40.114;18.306;2023-03-01T01:21:20;32.90;;;6.60;;
42192;SDS011;52467;40.114;18.306;2023-03-01T01:23:49;28.30;;;6.32;;
42192;SDS011;52467;40.114;18.306;2023-03-01T01:26:21;34.10;;;6.50;;
42192;SDS011;52467;40.114;18.306;2023-03-01T01:28:51;24.02;;;5.53;;
42192;SDS011;52467;40.114;18.306;2023-03-01T01:31:20;24.80;;;5.85;;
42192;SDS011;52467;40.114;18.306;2023-03-01T01:33:50;22.17;;;5.57;;
42192;SDS011;52467;40.114;18.306;2023-03-01T01:36:21;23.90;;;5.10;;
42192;SDS011;52467;40.114;18.306;2023-03-01T01:38:49;27.17;;;5.75;;
42192;SDS011;52467;40.114;18.306;2023-03-01T01:41:16;27.92;;;6.07;;
42192;SDS011;52467;40.114;18.306;2023-03-01T01:43:45;26.23;;;5.85;;
42192;SDS011;52467;40.114;18.306;2023-03-01T01:49:05;22.20;;;5.88;;
42192;SDS011;52467;40.114;18.306;2023-03-01T01:51:40;23.85;;;5.70;;
42192;SDS011;52467;40.114;18.306;2023-03-01T01:54:53;15.77;;;5.88;;
42192;SDS011;52467;40.114;18.306;2023-03-01T01:57:30;23.60;;;6.15;;
42192;SDS011;52467;40.114;18.306;2023-03-01T02:00:03;24.45;;;6.47;;
42192;SDS011;52467;40.114;18.306;2023-03-01T02:02:38;23.85;;;5.75;;
42192;SDS011;52467;40.114;18.306;2023-03-01T02:05:09;33.58;;;6.68;;
42192;SDS011;52467;40.114;18.306;2023-03-01T02:07:41;24.60;;;5.97;;
42192;SDS011;52467;40.114;18.306;2023-03-01T02:10:09;35.78;;;5.78;;
42192;SDS011;52467;40.114;18.306;2023-03-01T02:12:37;22.48;;;6.43;;
42192;SDS011;52467;40.114;18.306;2023-03-01T02:15:05;28.40;;;6.38;;
42192;SDS011;52467;40.114;18.306;2023-03-01T02:17:33;30.10;;;6.75;;
42192;SDS011;52467;40.114;18.306;2023-03-01T02:22:34;29.63;;;7.80;;
42192;SDS011;52467;40.114;18.306;2023-03-01T02:25:06;30.70;;;6.78;;
42192;SDS011;52467;40.114;18.306;2023-03-01T02:30:21;31.40;;;8.93;;
42192;SDS011;52467;40.114;18.306;2023-03-01T02:32:50;38.15;;;9.02;;
42192;SDS011;52467;40.114;18.306;2023-03-01T02:35:18;37.63;;;9.35;;
42192;SDS011;52467;40.114;18.306;2023-03-01T02:37:46;47.00;;;10.07;;
42192;SDS011;52467;40.114;18.306;2023-03-01T02:40:16;46.25;;;11.73;;
42192;SDS011;52467;40.114;18.306;2023-03-01T02:42:52;42.10;;;11.15;;
42192;SDS011;52467;40.114;18.306;2023-03-01T02:45:22;44.25;;;11.98;;
42192;SDS011;52467;40.114;18.306;2023-03-01T02:47:49;52.43;;;12.23;;
42192;SDS011;52467;40.114;18.306;2023-03-01T02:50:25;46.43;;;11.60;;
42192;SDS011;52467;40.114;18.306;2023-03-01T02:53:08;42.03;;;13.50;;
42192;SDS011;52467;40.114;18.306;2023-03-01T02:55:40;48.67;;;13.47;;
42192;SDS011;52467;40.114;18.306;2023-03-01T02:58:08;45.20;;;13.23;;
42192;SDS011;52467;40.114;18.306;2023-03-01T03:00:36;51.35;;;13.35;;
42192;SDS011;52467;40.114;18.306;2023-03-01T03:03:15;54.65;;;13.45;;
42192;SDS011;52467;40.114;18.306;2023-03-01T03:05:46;51.00;;;14.43;;
42192;SDS011;52467;40.114;18.306;2023-03-01T03:08:15;45.28;;;14.63;;
42192;SDS011;52467;40.114;18.306;2023-03-01T03:10:51;46.33;;;13.32;;
42192;SDS011;52467;40.114;18.306;2023-03-01T03:13:18;45.28;;;14.00;;
42192;SDS011;52467;40.114;18.306;2023-03-01T03:15:45;38.17;;;12.17;;
42192;SDS011;52467;40.114;18.306;2023-03-01T03:18:13;52.63;;;13.17;;
42192;SDS011;52467;40.114;18.306;2023-03-01T03:20:43;41.20;;;12.70;;
42192;SDS011;52467;40.114;18.306;2023-03-01T03:23:11;37.88;;;12.40;;
42192;SDS011;52467;40.114;18.306;2023-03-01T03:25:38;38.30;;;11.38;;
42192;SDS011;52467;40.114;18.306;2023-03-01T03:28:06;47.47;;;12.60;;
42192;SDS011;52467;40.114;18.306;2023-03-01T03:30:38;36.20;;;11.20;;
42192;SDS011;52467;40.114;18.306;2023-03-01T03:33:06;49.50;;;11.93;;
42192;SDS011;52467;40.114;18.306;2023-03-01T03:35:46;48.30;;;11.97;;
42192;SDS011;52467;40.114;18.306;2023-03-01T03:38:16;51.22;;;11.98;;
42192;SDS011;52467;40.114;18.306;2023-03-01T03:40:46;45.20;;;10.43;;
42192;SDS011;52467;40.114;18.306;2023-03-01T03:43:16;40.47;;;11.63;;
42192;SDS011;52467;40.114;18.306;2023-03-01T03:45:49;40.05;;;10.88;;
42192;SDS011;52467;40.114;18.306;2023-03-01T03:48:17;36.17;;;11.15;;
42192;SDS011;52467;40.114;18.306;2023-03-01T03:50:49;39.20;;;10.43;;
42192;SDS011;52467;40.114;18.306;2023-03-01T03:53:18;32.85;;;9.85;;
42192;SDS011;52467;40.114;18.306;2023-03-01T03:55:46;41.17;;;10.30;;
42192;SDS011;52467;40.114;18.306;2023-03-01T03:58:15;36.50;;;11.02;;
42192;SDS011;52467;40.114;18.306;2023-03-01T04:00:47;33.40;;;9.88;;
42192;SDS011;52467;40.114;18.306;2023-03-01T04:03:17;42.15;;;10.77;;
42192;SDS011;52467;40.114;18.306;2023-03-01T04:05:46;35.97;;;11.23;;
42192;SDS011;52467;40.114;18.306;2023-03-01T04:08:13;37.90;;;11.27;;
42192;SDS011;52467;40.114;18.306;2023-03-01T04:10:44;34.53;;;10.33;;
42192;SDS011;52467;40.114;18.306;2023-03-01T04:13:13;37.97;;;11.65;;
42192;SDS011;52467;40.114;18.306;2023-03-01T04:15:42;32.83;;;10.73;;
42192;SDS011;52467;40.114;18.306;2023-03-01T04:18:12;36.70;;;11.27;;
42192;SDS011;52467;40.114;18.306;2023-03-01T04:20:40;33.05;;;10.75;;
42192;SDS011;52467;40.114;18.306;2023-03-01T04:23:13;26.95;;;11.00;;
42192;SDS011;52467;40.114;18.306;2023-03-01T04:28:12;30.00;;;10.57;;
42192;SDS011;52467;40.114;18.306;2023-03-01T04:30:40;30.70;;;10.65;;
42192;SDS011;52467;40.114;18.306;2023-03-01T04:33:08;34.13;;;10.53;;
42192;SDS011;52467;40.114;18.306;2023-03-01T04:35:36;39.28;;;10.85;;
42192;SDS011;52467;40.114;18.306;2023-03-01T04:38:04;30.67;;;10.98;;
42192;SDS011;52467;40.114;18.306;2023-03-01T04:40:31;27.13;;;9.75;;
42192;SDS011;52467;40.114;18.306;2023-03-01T04:42:59;28.60;;;10.53;;
42192;SDS011;52467;40.114;18.306;2023-03-01T04:45:27;31.60;;;10.02;;
42192;SDS011;52467;40.114;18.306;2023-03-01T04:47:54;28.10;;;10.15;;
42192;SDS011;52467;40.114;18.306;2023-03-01T04:50:21;24.60;;;10.23;;
42192;SDS011;52467;40.114;18.306;2023-03-01T04:52:50;31.33;;;10.07;;
42192;SDS011;52467;40.114;18.306;2023-03-01T04:55:17;25.75;;;9.43;;
42192;SDS011;52467;40.114;18.306;2023-03-01T04:57:45;19.40;;;8.90;;
42192;SDS011;52467;40.114;18.306;2023-03-01T05:00:13;24.30;;;8.85;;
42192;SDS011;52467;40.114;18.306;2023-03-01T05:02:53;22.25;;;8.20;;
42192;SDS011;52467;40.114;18.306;2023-03-01T05:05:25;26.92;;;9.57;;
42192;SDS011;52467;40.114;18.306;2023-03-01T05:07:55;21.83;;;8.20;;
42192;SDS011;52467;40.114;18.306;2023-03-01T05:10:24;25.58;;;9.57;;
42192;SDS011;52467;40.114;18.306;2023-03-01T05:12:52;27.53;;;8.97;;
42192;SDS011;52467;40.114;18.306;2023-03-01T05:15:20;16.05;;;8.05;;
42192;SDS011;52467;40.114;18.306;2023-03-01T05:17:48;22.75;;;8.70;;
42192;SDS011;52467;40.114;18.306;2023-03-01T05:20:16;21.65;;;7.55;;
42192;SDS011;52467;40.114;18.306;2023-03-01T05:22:44;21.15;;;8.50;;
42192;SDS011;52467;40.114;18.306;2023-03-01T05:25:11;23.17;;;9.07;;
42192;SDS011;52467;40.114;18.306;2023-03-01T05:27:40;21.97;;;8.40;;
42192;SDS011;52467;40.114;18.306;2023-03-01T05:30:08;26.50;;;9.48;;
42192;SDS011;52467;40.114;18.306;2023-03-01T05:32:48;26.35;;;8.35;;
42192;SDS011;52467;40.114;18.306;2023-03-01T05:35:22;24.02;;;8.85;;
42192;SDS011;52467;40.114;18.306;2023-03-01T05:37:50;21.35;;;8.82;;
42192;SDS011;52467;40.114;18.306;2023-03-01T05:40:18;21.38;;;8.77;;
42192;SDS011;52467;40.114;18.306;2023-03-01T05:42:49;29.10;;;9.23;;
42192;SDS011;52467;40.114;18.306;2023-03-01T05:45:18;28.23;;;9.57;;
42192;SDS011;52467;40.114;18.306;2023-03-01T05:47:46;27.80;;;8.93;;
42192;SDS011;52467;40.114;18.306;2023-03-01T05:50:22;25.02;;;9.85;;
42192;SDS011;52467;40.114;18.306;2023-03-01T05:55:24;28.37;;;10.10;;
42192;SDS011;52467;40.114;18.306;2023-03-01T05:57:54;29.42;;;10.40;;
42192;SDS011;52467;40.114;18.306;2023-03-01T06:00:22;38.90;;;11.43;;
42192;SDS011;52467;40.114;18.306;2023-03-01T06:02:49;41.50;;;12.68;;
42192;SDS011;52467;40.114;18.306;2023-03-01T06:05:18;43.35;;;15.23;;
42192;SDS011;52467;40.114;18.306;2023-03-01T06:07:45;48.38;;;15.27;;
42192;SDS011;52467;40.114;18.306;2023-03-01T06:10:13;47.28;;;15.50;;
42192;SDS011;52467;40.114;18.306;2023-03-01T06:12:41;41.35;;;14.80;;
42192;SDS011;52467;40.114;18.306;2023-03-01T06:15:11;43.08;;;14.05;;
42192;SDS011;52467;40.114;18.306;2023-03-01T06:17:40;46.40;;;15.43;;
42192;SDS011;52467;40.114;18.306;2023-03-01T06:20:16;35.30;;;13.35;;
42192;SDS011;52467;40.114;18.306;2023-03-01T06:22:45;37.92;;;13.77;;
42192;SDS011;52467;40.114;18.306;2023-03-01T06:25:13;43.30;;;14.65;;
42192;SDS011;52467;40.114;18.306;2023-03-01T06:27:43;40.70;;;13.60;;
42192;SDS011;52467;40.114;18.306;2023-03-01T06:30:11;36.97;;;13.68;;
42192;SDS011;52467;40.114;18.306;2023-03-01T06:32:40;42.97;;;15.07;;
42192;SDS011;52467;40.114;18.306;2023-03-01T06:35:11;41.03;;;15.35;;
42192;SDS011;52467;40.114;18.306;2023-03-01T06:37:40;43.95;;;15.30;;
42192;SDS011;52467;40.114;18.306;2023-03-01T06:40:08;49.00;;;14.82;;
42192;SDS011;52467;40.114;18.306;2023-03-01T06:42:38;45.10;;;14.40;;
42192;SDS011;52467;40.114;18.306;2023-03-01T06:45:07;39.88;;;13.25;;
42192;SDS011;52467;40.114;18.306;2023-03-01T06:47:35;49.17;;;15.07;;
42192;SDS011;52467;40.114;18.306;2023-03-01T06:50:02;47.20;;;14.88;;
42192;SDS011;52467;40.114;18.306;2023-03-01T06:52:30;51.83;;;15.10;;
42192;SDS011;52467;40.114;18.306;2023-03-01T06:54:58;45.40;;;14.77;;
42192;SDS011;52467;40.114;18.306;2023-03-01T06:57:25;50.45;;;14.90;;
42192;SDS011;52467;40.114;18.306;2023-03-01T06:59:53;42.53;;;15.57;;
42192;SDS011;52467;40.114;18.306;2023-03-01T07:02:20;44.75;;;15.35;;
42192;SDS011;52467;40.114;18.306;2023-03-01T07:04:51;42.90;;;14.70;;
42192;SDS011;52467;40.114;18.306;2023-03-01T07:07:19;50.33;;;15.55;;
42192;SDS011;52467;40.114;18.306;2023-03-01T07:09:46;49.80;;;15.88;;
42192;SDS011;52467;40.114;18.306;2023-03-01T07:12:15;48.42;;;15.75;;
42192;SDS011;52467;40.114;18.306;2023-03-01T07:14:43;51.80;;;16.00;;
42192;SDS011;52467;40.114;18.306;2023-03-01T07:17:10;50.58;;;16.83;;
42192;SDS011;52467;40.114;18.306;2023-03-01T07:19:38;45.97;;;16.25;;
42192;SDS011;52467;40.114;18.306;2023-03-01T07:22:05;43.05;;;15.05;;
42192;SDS011;52467;40.114;18.306;2023-03-01T07:24:34;49.97;;;15.20;;
42192;SDS011;52467;40.114;18.306;2023-03-01T07:27:02;40.03;;;15.82;;
42192;SDS011;52467;40.114;18.306;2023-03-01T07:29:29;47.78;;;15.68;;
42192;SDS011;52467;40.114;18.306;2023-03-01T07:31:57;43.90;;;16.73;;
42192;SDS011;52467;40.114;18.306;2023-03-01T07:34:25;46.25;;;14.88;;
42192;SDS011;52467;40.114;18.306;2023-03-01T07:36:52;46.10;;;15.45;;
42192;SDS011;52467;40.114;18.306;2023-03-01T07:39:19;46.22;;;16.10;;
42192;SDS011;52467;40.114;18.306;2023-03-01T07:41:46;46.83;;;14.93;;
42192;SDS011;52467;40.114;18.306;2023-03-01T07:44:18;46.42;;;15.23;;
42192;SDS011;52467;40.114;18.306;2023-03-01T07:46:46;51.67;;;16.35;;
42192;SDS011;52467;40.114;18.306;2023-03-01T07:49:13;46.00;;;16.00;;
42192;SDS011;52467;40.114;18.306;2023-03-01T07:51:41;49.42;;;16.30;;
42192;SDS011;52467;40.114;18.306;2023-03-01T07:54:09;52.67;;;16.27;;
42192;SDS011;52467;40.114;18.306;2023-03-01T07:56:37;47.97;;;14.82;;
42192;SDS011;52467;40.114;18.306;2023-03-01T07:59:04;42.75;;;15.05;;
42192;SDS011;52467;40.114;18.306;2023-03-01T08:01:31;50.10;;;15.60;;
42192;SDS011;52467;40.114;18.306;2023-03-01T08:03:59;44.75;;;14.95;;
42192;SDS011;52467;40.114;18.306;2023-03-01T08:06:26;45.42;;;15.35;;
42192;SDS011;52467;40.114;18.306;2023-03-01T08:08:53;45.20;;;14.38;;
42192;SDS011;52467;40.114;18.306;2023-03-01T08:11:24;54.15;;;15.05;;
42192;SDS011;52467;40.114;18.306;2023-03-01T08:13:54;47.13;;;15.50;;
42192;SDS011;52467;40.114;18.306;2023-03-01T08:16:22;40.65;;;14.10;;
42192;SDS011;52467;40.114;18.306;2023-03-01T08:18:49;42.45;;;13.95;;
42192;SDS011;52467;40.114;18.306;2023-03-01T08:21:16;39.00;;;12.88;;
42192;SDS011;52467;40.114;18.306;2023-03-01T08:23:44;38.05;;;13.23;;
42192;SDS011;52467;40.114;18.306;2023-03-01T08:26:13;44.25;;;14.13;;
42192;SDS011;52467;40.114;18.306;2023-03-01T08:28:42;46.65;;;14.63;;
42192;SDS011;52467;40.114;18.306;2023-03-01T08:31:17;49.78;;;13.80;;
42192;SDS011;52467;40.114;18.306;2023-03-01T08:33:47;43.40;;;13.05;;
42192;SDS011;52467;40.114;18.306;2023-03-01T08:36:17;43.17;;;13.77;;
42192;SDS011;52467;40.114;18.306;2023-03-01T08:38:44;33.40;;;13.55;;
42192;SDS011;52467;40.114;18.306;2023-03-01T08:41:12;40.22;;;13.07;;
42192;SDS011;52467;40.114;18.306;2023-03-01T08:43:40;36.67;;;12.48;;
42192;SDS011;52467;40.114;18.306;2023-03-01T08:46:07;45.22;;;11.45;;
42192;SDS011;52467;40.114;18.306;2023-03-01T08:48:34;42.03;;;12.05;;
42192;SDS011;52467;40.114;18.306;2023-03-01T08:51:09;36.78;;;12.18;;
42192;SDS011;52467;40.114;18.306;2023-03-01T08:53:40;35.63;;;10.63;;
42192;SDS011;52467;40.114;18.306;2023-03-01T08:56:08;45.17;;;11.87;;
42192;SDS011;52467;40.114;18.306;2023-03-01T08:58:36;34.28;;;11.02;;
42192;SDS011;52467;40.114;18.306;2023-03-01T09:01:07;38.65;;;10.40;;
42192;SDS011;52467;40.114;18.306;2023-03-01T09:03:35;39.45;;;11.10;;
42192;SDS011;52467;40.114;18.306;2023-03-01T09:06:03;37.20;;;10.35;;
42192;SDS011;52467;40.114;18.306;2023-03-01T09:08:33;37.65;;;9.32;;
42192;SDS011;52467;40.114;18.306;2023-03-01T09:11:05;43.95;;;10.35;;
42192;SDS011;52467;40.114;18.306;2023-03-01T09:13:33;41.60;;;9.73;;
42192;SDS011;52467;40.114;18.306;2023-03-01T09:16:01;44.20;;;9.53;;
42192;SDS011;52467;40.114;18.306;2023-03-01T09:18:29;35.13;;;8.85;;
42192;SDS011;52467;40.114;18.306;2023-03-01T09:21:04;37.92;;;9.20;;
42192;SDS011;52467;40.114;18.306;2023-03-01T09:23:39;31.50;;;8.63;;
42192;SDS011;52467;40.114;18.306;2023-03-01T09:26:11;32.55;;;8.05;;
42192;SDS011;52467;40.114;18.306;2023-03-01T09:28:41;35.15;;;7.75;;
42192;SDS011;52467;40.114;18.306;2023-03-01T09:31:08;36.75;;;8.77;;
42192;SDS011;52467;40.114;18.306;2023-03-01T09:33:36;31.52;;;8.43;;
42192;SDS011;52467;40.114;18.306;2023-03-01T09:36:04;31.80;;;8.52;;
42192;SDS011;52467;40.114;18.306;2023-03-01T09:38:34;26.60;;;7.30;;
42192;SDS011;52467;40.114;18.306;2023-03-01T09:41:01;27.92;;;7.93;;
42192;SDS011;52467;40.114;18.306;2023-03-01T09:46:08;28.70;;;6.57;;
42192;SDS011;52467;40.114;18.306;2023-03-01T09:48:46;31.63;;;7.18;;
42192;SDS011;52467;40.114;18.306;2023-03-01T09:51:18;32.30;;;7.17;;
42192;SDS011;52467;40.114;18.306;2023-03-01T09:53:49;33.58;;;7.35;;
42192;SDS011;52467;40.114;18.306;2023-03-01T09:56:20;33.22;;;6.82;;
42192;SDS011;52467;40.114;18.306;2023-03-01T10:01:38;30.90;;;7.17;;
42192;SDS011;52467;40.114;18.306;2023-03-01T10:06:51;38.95;;;7.53;;
42192;SDS011;52467;40.114;18.306;2023-03-01T10:09:42;28.60;;;6.63;;
42192;SDS011;52467;40.114;18.306;2023-03-01T10:12:18;29.58;;;5.80;;
42192;SDS011;52467;40.114;18.306;2023-03-01T10:15:09;27.58;;;5.82;;
42192;SDS011;52467;40.114;18.306;2023-03-01T10:20:15;33.72;;;6.63;;
42192;SDS011;52467;40.114;18.306;2023-03-01T10:22:43;28.13;;;7.00;;
42192;SDS011;52467;40.114;18.306;2023-03-01T10:25:17;28.33;;;6.55;;
42192;SDS011;52467;40.114;18.306;2023-03-01T10:27:52;26.83;;;6.35;;
42192;SDS011;52467;40.114;18.306;2023-03-01T10:30:22;30.75;;;6.93;;
42192;SDS011;52467;40.114;18.306;2023-03-01T10:32:59;30.13;;;6.25;;
42192;SDS011;52467;40.114;18.306;2023-03-01T10:35:29;25.42;;;6.60;;
42192;SDS011;52467;40.114;18.306;2023-03-01T10:38:10;35.53;;;7.07;;
42192;SDS011;52467;40.114;18.306;2023-03-01T10:40:56;26.55;;;6.80;;
42192;SDS011;52467;40.114;18.306;2023-03-01T10:43:25;28.15;;;6.55;;
42192;SDS011;52467;40.114;18.306;2023-03-01T10:45:59;24.95;;;6.43;;
42192;SDS011;52467;40.114;18.306;2023-03-01T10:48:26;29.27;;;7.50;;
42192;SDS011;52467;40.114;18.306;2023-03-01T10:55:59;42.58;;;6.90;;
42192;SDS011;52467;40.114;18.306;2023-03-01T10:58:37;45.03;;;6.47;;
42192;SDS011;52467;40.114;18.306;2023-03-01T11:01:23;40.20;;;6.70;;
42192;SDS011;52467;40.114;18.306;2023-03-01T11:06:36;36.63;;;6.55;;
42192;SDS011;52467;40.114;18.306;2023-03-01T11:09:18;39.58;;;6.95;;
42192;SDS011;52467;40.114;18.306;2023-03-01T11:11:46;40.83;;;7.05;;
42192;SDS011;52467;40.114;18.306;2023-03-01T11:14:26;34.05;;;6.57;;
42192;SDS011;52467;40.114;18.306;2023-03-01T11:17:05;41.25;;;6.38;;
42192;SDS011;52467;40.114;18.306;2023-03-01T11:19:32;42.47;;;6.35;;
42192;SDS011;52467;40.114;18.306;2023-03-01T11:24:44;44.10;;;7.38;;
42192;SDS011;52467;40.114;18.306;2023-03-01T11:29:52;44.85;;;5.45;;
42192;SDS011;52467;40.114;18.306;2023-03-01T11:32:24;38.10;;;5.90;;
42192;SDS011;52467;40.114;18.306;2023-03-01T11:35:05;35.67;;;6.20;;
42192;SDS011;52467;40.114;18.306;2023-03-01T11:37:51;32.08;;;6.28;;
42192;SDS011;52467;40.114;18.306;2023-03-01T11:40:50;41.13;;;6.60;;
42192;SDS011;52467;40.114;18.306;2023-03-01T11:43:28;43.10;;;7.35;;
42192;SDS011;52467;40.114;18.306;2023-03-01T11:52:03;38.88;;;6.88;;
42192;SDS011;52467;40.114;18.306;2023-03-01T11:54:57;36.70;;;6.13;;
42192;SDS011;52467;40.114;18.306;2023-03-01T11:58:08;49.20;;;6.63;;
42192;SDS011;52467;40.114;18.306;2023-03-01T12:01:00;51.00;;;5.73;;
42192;SDS011;52467;40.114;18.306;2023-03-01T12:06:38;48.78;;;5.65;;
42192;SDS011;52467;40.114;18.306;2023-03-01T12:24:14;43.80;;;6.60;;
42192;SDS011;52467;40.114;18.306;2023-03-01T12:27:11;43.38;;;6.65;;
42192;SDS011;52467;40.114;18.306;2023-03-01T12:30:25;47.57;;;7.47;;
42192;SDS011;52467;40.114;18.306;2023-03-01T12:38:44;44.57;;;6.10;;
42192;SDS011;52467;40.114;18.306;2023-03-01T12:49:34;51.13;;;7.00;;
42192;SDS011;52467;40.114;18.306;2023-03-01T12:52:15;37.33;;;5.80;;
42192;SDS011;52467;40.114;18.306;2023-03-01T12:54:44;39.47;;;5.37;;
42192;SDS011;52467;40.114;18.306;2023-03-01T12:57:15;42.60;;;6.82;;
42192;SDS011;52467;40.114;18.306;2023-03-01T13:02:49;35.08;;;4.80;;
42192;SDS011;52467;40.114;18.306;2023-03-01T13:05:46;36.45;;;5.72;;
42192;SDS011;52467;40.114;18.306;2023-03-01T13:08:39;38.90;;;5.13;;
42192;SDS011;52467;40.114;18.306;2023-03-01T13:11:17;29.50;;;5.20;;
42192;SDS011;52467;40.114;18.306;2023-03-01T13:13:46;29.75;;;4.78;;
42192;SDS011;52467;40.114;18.306;2023-03-01T13:19:12;30.40;;;4.80;;
42192;SDS011;52467;40.114;18.306;2023-03-01T13:21:44;26.40;;;5.57;;
42192;SDS011;52467;40.114;18.306;2023-03-01T13:24:26;28.60;;;4.65;;
42192;SDS011;52467;40.114;18.306;2023-03-01T13:29:49;35.28;;;5.35;;
42192;SDS011;52467;40.114;18.306;2023-03-01T13:35:00;31.30;;;4.53;;
42192;SDS011;52467;40.114;18.306;2023-03-01T13:40:00;34.03;;;5.05;;
42192;SDS011;52467;40.114;18.306;2023-03-01T13:42:35;29.52;;;4.95;;
42192;SDS011;52467;40.114;18.306;2023-03-01T13:45:12;40.63;;;5.40;;
42192;SDS011;52467;40.114;18.306;2023-03-01T13:48:04;38.20;;;4.47;;
42192;SDS011;52467;40.114;18.306;2023-03-01T13:50:38;36.28;;;5.47;;
42192;SDS011;52467;40.114;18.306;2023-03-01T13:53:14;36.72;;;5.38;;
42192;SDS011;52467;40.114;18.306;2023-03-01T14:03:49;42.85;;;5.63;;
42192;SDS011;52467;40.114;18.306;2023-03-01T14:06:18;40.40;;;5.00;;
42192;SDS011;52467;40.114;18.306;2023-03-01T14:08:49;37.75;;;5.60;;
42192;SDS011;52467;40.114;18.306;2023-03-01T14:11:23;38.90;;;5.40;;
42192;SDS011;52467;40.114;18.306;2023-03-01T14:19:35;38.33;;;4.85;;
42192;SDS011;52467;40.114;18.306;2023-03-01T14:24:48;37.28;;;5.43;;
42192;SDS011;52467;40.114;18.306;2023-03-01T14:27:27;30.77;;;4.13;;
42192;SDS011;52467;40.114;18.306;2023-03-01T14:29:58;30.42;;;4.90;;
42192;SDS011;52467;40.114;18.306;2023-03-01T14:32:28;39.43;;;5.17;;
42192;SDS011;52467;40.114;18.306;2023-03-01T14:34:57;30.10;;;4.30;;
42192;SDS011;52467;40.114;18.306;2023-03-01T14:37:26;25.15;;;3.85;;
42192;SDS011;52467;40.114;18.306;2023-03-01T14:39:57;31.25;;;4.32;;
42192;SDS011;52467;40.114;18.306;2023-03-01T14:42:26;34.87;;;3.67;;
42192;SDS011;52467;40.114;18.306;2023-03-01T14:44:58;30.77;;;4.55;;
42192;SDS011;52467;40.114;18.306;2023-03-01T14:47:28;25.33;;;4.00;;
42192;SDS011;52467;40.114;18.306;2023-03-01T14:50:15;31.50;;;3.57;;
42192;SDS011;52467;40.114;18.306;2023-03-01T14:52:51;21.83;;;3.80;;
42192;SDS011;52467;40.114;18.306;2023-03-01T14:55:36;25.92;;;3.97;;
42192;SDS011;52467;40.114;18.306;2023-03-01T14:58:14;25.27;;;3.80;;
42192;SDS011;52467;40.114;18.306;2023-03-01T15:00:54;28.20;;;3.25;;
42192;SDS011;52467;40.114;18.306;2023-03-01T15:03:36;22.30;;;3.13;;
42192;SDS011;52467;40.114;18.306;2023-03-01T15:06:06;25.00;;;3.10;;
42192;SDS011;52467;40.114;18.306;2023-03-01T15:08:35;22.77;;;3.60;;
42192;SDS011;52467;40.114;18.306;2023-03-01T15:11:50;29.80;;;3.40;;
42192;SDS011;52467;40.114;18.306;2023-03-01T15:13:56;21.93;;;3.53;;
42192;SDS011;52467;40.114;18.306;2023-03-01T15:16:24;28.92;;;3.45;;
42192;SDS011;52467;40.114;18.306;2023-03-01T15:18:54;24.83;;;3.30;;
42192;SDS011;52467;40.114;18.306;2023-03-01T15:21:24;25.77;;;4.30;;
42192;SDS011;52467;40.114;18.306;2023-03-01T15:26:50;21.13;;;3.53;;
42192;SDS011;52467;40.114;18.306;2023-03-01T15:29:23;22.83;;;3.38;;
42192;SDS011;52467;40.114;18.306;2023-03-01T15:31:58;25.13;;;6.43;;
42192;SDS011;52467;40.114;18.306;2023-03-01T15:34:36;25.90;;;4.80;;
42192;SDS011;52467;40.114;18.306;2023-03-01T15:37:05;27.27;;;4.05;;
42192;SDS011;52467;40.114;18.306;2023-03-01T15:39:54;13.63;;;3.58;;
42192;SDS011;52467;40.114;18.306;2023-03-01T15:47:35;24.83;;;3.20;;
42192;SDS011;52467;40.114;18.306;2023-03-01T15:50:03;22.90;;;3.30;;
42192;SDS011;52467;40.114;18.306;2023-03-01T15:52:34;17.15;;;3.00;;
42192;SDS011;52467;40.114;18.306;2023-03-01T15:55:06;20.70;;;2.80;;
42192;SDS011;52467;40.114;18.306;2023-03-01T15:57:49;29.10;;;3.67;;
42192;SDS011;52467;40.114;18.306;2023-03-01T16:00:17;17.17;;;3.40;;
42192;SDS011;52467;40.114;18.306;2023-03-01T16:02:45;21.13;;;3.15;;
42192;SDS011;52467;40.114;18.306;2023-03-01T16:05:15;21.77;;;3.65;;
42192;SDS011;52467;40.114;18.306;2023-03-01T16:07:50;30.63;;;3.40;;
42192;SDS011;52467;40.114;18.306;2023-03-01T16:10:18;18.45;;;3.33;;
42192;SDS011;52467;40.114;18.306;2023-03-01T16:12:46;26.70;;;3.35;;
42192;SDS011;52467;40.114;18.306;2023-03-01T16:15:19;21.38;;;4.10;;
42192;SDS011;52467;40.114;18.306;2023-03-01T16:17:47;26.20;;;3.67;;
42192;SDS011;52467;40.114;18.306;2023-03-01T16:20:21;17.67;;;3.60;;
42192;SDS011;52467;40.114;18.306;2023-03-01T16:22:54;20.27;;;3.10;;
42192;SDS011;52467;40.114;18.306;2023-03-01T16:25:21;19.98;;;3.05;;
42192;SDS011;52467;40.114;18.306;2023-03-01T16:27:49;23.55;;;3.55;;
42192;SDS011;52467;40.114;18.306;2023-03-01T16:30:18;21.88;;;3.47;;
42192;SDS011;52467;40.114;18.306;2023-03-01T16:32:47;25.42;;;3.50;;
42192;SDS011;52467;40.114;18.306;2023-03-01T16:35:16;23.75;;;4.22;;
42192;SDS011;52467;40.114;18.306;2023-03-01T16:37:46;26.40;;;4.03;;